sensor_id;sensor_type;location;lat;lon;timestamp;P1;durP1;ratioP1;P2;durP2;ratioP2
59074;SDS011;44860;53.020;6.738;2023-05-07T00:01:25;22.02;;;19.52;;
59074;SDS011;44860;53.020;6.738;2023-05-07T00:03:51;21.02;;;18.83;;
59074;SDS011;44860;53.020;6.738;2023-05-07T00:06:16;22.33;;;19.52;;
59074;SDS011;44860;53.020;6.738;2023-05-07T00:08:42;22.60;;;19.95;;
59074;SDS011;44860;53.020;6.738;2023-05-07T00:11:08;25.17;;;19.73;;
59074;SDS011;44860;53.020;6.738;2023-05-07T00:13:34;23.13;;;19.55;;
59074;SDS011;44860;53.020;6.738;2023-05-07T00:16:03;25.38;;;19.65;;
59074;SDS011;44860;53.020;6.738;2023-05-07T00:18:30;22.80;;;20.35;;
59074;SDS011;44860;53.020;6.738;2023-05-07T00:20:56;21.70;;;19.20;;
59074;SDS011;44860;53.020;6.738;2023-05-07T00:23:22;25.40;;;20.13;;
59074;SDS011;44860;53.020;6.738;2023-05-07T00:25:48;24.52;;;20.95;;
59074;SDS011;44860;53.020;6.738;2023-05-07T00:28:13;24.23;;;20.92;;
59074;SDS011;44860;53.020;6.738;2023-05-07T00:30:39;22.83;;;20.02;;
59074;SDS011;44860;53.020;6.738;2023-05-07T00:33:05;23.55;;;20.52;;
59074;SDS011;44860;53.020;6.738;2023-05-07T00:35:30;25.10;;;21.13;;
59074;SDS011;44860;53.020;6.738;2023-05-07T00:37:56;24.58;;;21.17;;
59074;SDS011;44860;53.020;6.738;2023-05-07T00:40:22;22.73;;;19.95;;
59074;SDS011;44860;53.020;6.738;2023-05-07T00:42:48;23.60;;;21.00;;
59074;SDS011;44860;53.020;6.738;2023-05-07T00:45:14;26.27;;;20.73;;
59074;SDS011;44860;53.020;6.738;2023-05-07T00:47:40;22.58;;;20.15;;
59074;SDS011;44860;53.020;6.738;2023-05-07T00:50:06;26.25;;;22.25;;
59074;SDS011;44860;53.020;6.738;2023-05-07T00:52:34;26.40;;;21.73;;
59074;SDS011;44860;53.020;6.738;2023-05-07T00:55:03;26.83;;;22.35;;
59074;SDS011;44860;53.020;6.738;2023-05-07T00:57:32;26.58;;;21.63;;
59074;SDS011;44860;53.020;6.738;2023-05-07T01:00:02;28.48;;;22.38;;
59074;SDS011;44860;53.020;6.738;2023-05-07T01:02:29;28.38;;;22.45;;
59074;SDS011;44860;53.020;6.738;2023-05-07T01:04:55;25.95;;;22.92;;
59074;SDS011;44860;53.020;6.738;2023-05-07T01:07:21;27.38;;;22.88;;
59074;SDS011;44860;53.020;6.738;2023-05-07T01:09:48;25.35;;;22.30;;
59074;SDS011;44860;53.020;6.738;2023-05-07T01:12:14;25.10;;;21.80;;
59074;SDS011;44860;53.020;6.738;2023-05-07T01:14:40;27.75;;;22.88;;
59074;SDS011;44860;53.020;6.738;2023-05-07T01:17:08;26.60;;;23.80;;
59074;SDS011;44860;53.020;6.738;2023-05-07T01:19:34;25.52;;;22.52;;
59074;SDS011;44860;53.020;6.738;2023-05-07T01:22:02;25.85;;;21.95;;
59074;SDS011;44860;53.020;6.738;2023-05-07T01:24:32;25.83;;;23.02;;
59074;SDS011;44860;53.020;6.738;2023-05-07T01:26:58;26.40;;;22.40;;
59074;SDS011;44860;53.020;6.738;2023-05-07T01:29:24;27.05;;;24.00;;
59074;SDS011;44860;53.020;6.738;2023-05-07T01:31:49;26.02;;;23.02;;
59074;SDS011;44860;53.020;6.738;2023-05-07T01:34:16;27.35;;;23.17;;
59074;SDS011;44860;53.020;6.738;2023-05-07T01:36:43;27.65;;;24.08;;
59074;SDS011;44860;53.020;6.738;2023-05-07T01:39:10;26.45;;;23.73;;
59074;SDS011;44860;53.020;6.738;2023-05-07T01:41:36;27.02;;;23.70;;
59074;SDS011;44860;53.020;6.738;2023-05-07T01:44:03;26.58;;;23.80;;
59074;SDS011;44860;53.020;6.738;2023-05-07T01:46:29;29.48;;;24.98;;
59074;SDS011;44860;53.020;6.738;2023-05-07T01:48:57;28.60;;;25.05;;
59074;SDS011;44860;53.020;6.738;2023-05-07T01:51:23;30.58;;;25.00;;
59074;SDS011;44860;53.020;6.738;2023-05-07T01:53:49;27.45;;;24.48;;
59074;SDS011;44860;53.020;6.738;2023-05-07T01:56:18;29.45;;;26.35;;
59074;SDS011;44860;53.020;6.738;2023-05-07T01:58:45;29.35;;;25.25;;
59074;SDS011;44860;53.020;6.738;2023-05-07T02:01:12;30.60;;;25.30;;
59074;SDS011;44860;53.020;6.738;2023-05-07T02:03:38;31.73;;;26.20;;
59074;SDS011;44860;53.020;6.738;2023-05-07T02:06:04;30.95;;;26.25;;
59074;SDS011;44860;53.020;6.738;2023-05-07T02:08:30;32.05;;;27.63;;
59074;SDS011;44860;53.020;6.738;2023-05-07T02:10:56;29.88;;;26.70;;
59074;SDS011;44860;53.020;6.738;2023-05-07T02:13:21;34.28;;;29.00;;
59074;SDS011;44860;53.020;6.738;2023-05-07T02:15:49;34.30;;;28.88;;
59074;SDS011;44860;53.020;6.738;2023-05-07T02:18:15;33.00;;;28.33;;
59074;SDS011;44860;53.020;6.738;2023-05-07T02:20:42;35.40;;;28.55;;
59074;SDS011;44860;53.020;6.738;2023-05-07T02:23:07;42.90;;;30.60;;
59074;SDS011;44860;53.020;6.738;2023-05-07T02:25:33;36.45;;;29.52;;
59074;SDS011;44860;53.020;6.738;2023-05-07T02:27:59;36.42;;;29.25;;
59074;SDS011;44860;53.020;6.738;2023-05-07T02:30:25;35.67;;;28.70;;
59074;SDS011;44860;53.020;6.738;2023-05-07T02:32:51;36.67;;;30.50;;
59074;SDS011;44860;53.020;6.738;2023-05-07T02:35:16;39.03;;;31.23;;
59074;SDS011;44860;53.020;6.738;2023-05-07T02:37:42;36.05;;;30.27;;
59074;SDS011;44860;53.020;6.738;2023-05-07T02:40:08;37.45;;;30.92;;
59074;SDS011;44860;53.020;6.738;2023-05-07T02:42:35;35.55;;;29.88;;
59074;SDS011;44860;53.020;6.738;2023-05-07T02:45:00;38.35;;;30.65;;
59074;SDS011;44860;53.020;6.738;2023-05-07T02:47:26;39.58;;;30.90;;
59074;SDS011;44860;53.020;6.738;2023-05-07T02:49:53;36.80;;;30.02;;
59074;SDS011;44860;53.020;6.738;2023-05-07T02:52:20;40.92;;;32.00;;
59074;SDS011;44860;53.020;6.738;2023-05-07T02:54:46;39.25;;;30.98;;
59074;SDS011;44860;53.020;6.738;2023-05-07T02:57:11;42.78;;;32.28;;
59074;SDS011;44860;53.020;6.738;2023-05-07T02:59:37;39.22;;;32.55;;
59074;SDS011;44860;53.020;6.738;2023-05-07T03:02:03;44.03;;;31.48;;
59074;SDS011;44860;53.020;6.738;2023-05-07T03:04:28;40.65;;;32.55;;
59074;SDS011;44860;53.020;6.738;2023-05-07T03:06:54;39.70;;;31.98;;
59074;SDS011;44860;53.020;6.738;2023-05-07T03:09:20;43.80;;;32.92;;
59074;SDS011;44860;53.020;6.738;2023-05-07T03:11:45;45.67;;;34.88;;
59074;SDS011;44860;53.020;6.738;2023-05-07T03:14:11;41.83;;;32.15;;
59074;SDS011;44860;53.020;6.738;2023-05-07T03:16:37;40.65;;;32.38;;
59074;SDS011;44860;53.020;6.738;2023-05-07T03:19:03;39.75;;;32.83;;
59074;SDS011;44860;53.020;6.738;2023-05-07T03:21:28;42.05;;;31.80;;
59074;SDS011;44860;53.020;6.738;2023-05-07T03:23:55;42.85;;;32.55;;
59074;SDS011;44860;53.020;6.738;2023-05-07T03:26:21;43.60;;;33.25;;
59074;SDS011;44860;53.020;6.738;2023-05-07T03:28:47;41.05;;;33.75;;
59074;SDS011;44860;53.020;6.738;2023-05-07T03:31:12;45.95;;;34.22;;
59074;SDS011;44860;53.020;6.738;2023-05-07T03:33:42;44.28;;;33.25;;
59074;SDS011;44860;53.020;6.738;2023-05-07T03:36:21;43.63;;;32.97;;
59074;SDS011;44860;53.020;6.738;2023-05-07T03:38:48;45.92;;;34.20;;
59074;SDS011;44860;53.020;6.738;2023-05-07T03:41:14;43.60;;;33.22;;
59074;SDS011;44860;53.020;6.738;2023-05-07T03:43:40;42.65;;;33.65;;
59074;SDS011;44860;53.020;6.738;2023-05-07T03:46:06;40.83;;;32.70;;
59074;SDS011;44860;53.020;6.738;2023-05-07T03:48:32;41.95;;;33.78;;
59074;SDS011;44860;53.020;6.738;2023-05-07T03:50:58;44.90;;;33.75;;
59074;SDS011;44860;53.020;6.738;2023-05-07T03:53:24;42.65;;;33.40;;
59074;SDS011;44860;53.020;6.738;2023-05-07T03:55:49;41.75;;;33.40;;
59074;SDS011;44860;53.020;6.738;2023-05-07T03:58:15;40.60;;;32.28;;
59074;SDS011;44860;53.020;6.738;2023-05-07T04:00:41;40.10;;;32.40;;
59074;SDS011;44860;53.020;6.738;2023-05-07T04:03:07;41.20;;;32.30;;
59074;SDS011;44860;53.020;6.738;2023-05-07T04:05:32;38.05;;;31.58;;
59074;SDS011;44860;53.020;6.738;2023-05-07T04:07:58;42.38;;;31.88;;
59074;SDS011;44860;53.020;6.738;2023-05-07T04:10:25;39.60;;;32.72;;
59074;SDS011;44860;53.020;6.738;2023-05-07T04:12:51;38.95;;;31.35;;
59074;SDS011;44860;53.020;6.738;2023-05-07T04:15:16;40.42;;;31.65;;
59074;SDS011;44860;53.020;6.738;2023-05-07T04:17:42;38.65;;;31.90;;
59074;SDS011;44860;53.020;6.738;2023-05-07T04:20:14;34.92;;;31.08;;
59074;SDS011;44860;53.020;6.738;2023-05-07T04:22:44;39.33;;;30.38;;
59074;SDS011;44860;53.020;6.738;2023-05-07T04:25:09;36.78;;;30.13;;
59074;SDS011;44860;53.020;6.738;2023-05-07T04:27:35;35.08;;;29.50;;
59074;SDS011;44860;53.020;6.738;2023-05-07T04:30:04;40.40;;;30.70;;
59074;SDS011;44860;53.020;6.738;2023-05-07T04:32:31;38.20;;;31.00;;
59074;SDS011;44860;53.020;6.738;2023-05-07T04:34:57;35.35;;;29.33;;
59074;SDS011;44860;53.020;6.738;2023-05-07T04:37:22;37.22;;;29.90;;
59074;SDS011;44860;53.020;6.738;2023-05-07T04:39:48;38.13;;;30.35;;
59074;SDS011;44860;53.020;6.738;2023-05-07T04:42:15;36.08;;;29.42;;
59074;SDS011;44860;53.020;6.738;2023-05-07T04:44:41;33.05;;;29.05;;
59074;SDS011;44860;53.020;6.738;2023-05-07T04:47:07;35.10;;;29.70;;
59074;SDS011;44860;53.020;6.738;2023-05-07T04:49:32;35.97;;;29.88;;
59074;SDS011;44860;53.020;6.738;2023-05-07T04:51:58;36.70;;;30.25;;
59074;SDS011;44860;53.020;6.738;2023-05-07T04:54:23;33.92;;;28.77;;
59074;SDS011;44860;53.020;6.738;2023-05-07T04:56:50;38.15;;;29.77;;
59074;SDS011;44860;53.020;6.738;2023-05-07T04:59:15;35.35;;;29.27;;
59074;SDS011;44860;53.020;6.738;2023-05-07T05:01:41;35.45;;;28.20;;
59074;SDS011;44860;53.020;6.738;2023-05-07T05:04:07;36.20;;;29.90;;
59074;SDS011;44860;53.020;6.738;2023-05-07T05:06:32;33.60;;;29.02;;
59074;SDS011;44860;53.020;6.738;2023-05-07T05:08:58;34.70;;;29.17;;
59074;SDS011;44860;53.020;6.738;2023-05-07T05:11:24;32.78;;;28.05;;
59074;SDS011;44860;53.020;6.738;2023-05-07T05:13:50;35.92;;;29.17;;
59074;SDS011;44860;53.020;6.738;2023-05-07T05:16:15;30.30;;;26.25;;
59074;SDS011;44860;53.020;6.738;2023-05-07T05:18:41;34.15;;;28.40;;
59074;SDS011;44860;53.020;6.738;2023-05-07T05:21:07;31.73;;;26.27;;
59074;SDS011;44860;53.020;6.738;2023-05-07T05:23:33;32.30;;;27.45;;
59074;SDS011;44860;53.020;6.738;2023-05-07T05:25:58;31.80;;;27.60;;
59074;SDS011;44860;53.020;6.738;2023-05-07T05:28:24;33.55;;;28.70;;
59074;SDS011;44860;53.020;6.738;2023-05-07T05:30:50;30.67;;;25.73;;
59074;SDS011;44860;53.020;6.738;2023-05-07T05:33:15;32.30;;;27.13;;
59074;SDS011;44860;53.020;6.738;2023-05-07T05:35:41;29.08;;;25.90;;
59074;SDS011;44860;53.020;6.738;2023-05-07T05:38:07;31.80;;;27.75;;
59074;SDS011;44860;53.020;6.738;2023-05-07T05:40:33;32.13;;;27.35;;
59074;SDS011;44860;53.020;6.738;2023-05-07T05:42:59;31.17;;;27.48;;
59074;SDS011;44860;53.020;6.738;2023-05-07T05:45:25;31.50;;;26.52;;
59074;SDS011;44860;53.020;6.738;2023-05-07T05:47:50;32.25;;;27.25;;
59074;SDS011;44860;53.020;6.738;2023-05-07T05:50:16;30.40;;;26.02;;
59074;SDS011;44860;53.020;6.738;2023-05-07T05:52:42;31.13;;;27.17;;
59074;SDS011;44860;53.020;6.738;2023-05-07T05:55:08;31.23;;;27.60;;
59074;SDS011;44860;53.020;6.738;2023-05-07T05:57:34;31.67;;;27.38;;
59074;SDS011;44860;53.020;6.738;2023-05-07T06:00:00;30.60;;;26.40;;
59074;SDS011;44860;53.020;6.738;2023-05-07T06:02:26;30.67;;;27.38;;
59074;SDS011;44860;53.020;6.738;2023-05-07T06:04:52;30.40;;;27.00;;
59074;SDS011;44860;53.020;6.738;2023-05-07T06:07:17;30.80;;;26.83;;
59074;SDS011;44860;53.020;6.738;2023-05-07T06:09:43;30.85;;;27.55;;
59074;SDS011;44860;53.020;6.738;2023-05-07T06:12:09;29.92;;;26.55;;
59074;SDS011;44860;53.020;6.738;2023-05-07T06:14:34;32.30;;;26.55;;
59074;SDS011;44860;53.020;6.738;2023-05-07T06:17:00;29.92;;;26.35;;
59074;SDS011;44860;53.020;6.738;2023-05-07T06:19:26;33.20;;;27.30;;
59074;SDS011;44860;53.020;6.738;2023-05-07T06:21:53;33.95;;;28.27;;
59074;SDS011;44860;53.020;6.738;2023-05-07T06:24:18;31.83;;;27.60;;
59074;SDS011;44860;53.020;6.738;2023-05-07T06:26:44;30.70;;;27.40;;
59074;SDS011;44860;53.020;6.738;2023-05-07T06:29:10;31.48;;;27.88;;
59074;SDS011;44860;53.020;6.738;2023-05-07T06:31:35;30.92;;;26.45;;
59074;SDS011;44860;53.020;6.738;2023-05-07T06:34:01;30.02;;;25.70;;
59074;SDS011;44860;53.020;6.738;2023-05-07T06:36:27;30.67;;;26.58;;
59074;SDS011;44860;53.020;6.738;2023-05-07T06:38:53;29.35;;;26.17;;
59074;SDS011;44860;53.020;6.738;2023-05-07T06:41:19;28.33;;;25.23;;
59074;SDS011;44860;53.020;6.738;2023-05-07T06:43:45;31.70;;;27.45;;
59074;SDS011;44860;53.020;6.738;2023-05-07T06:46:11;31.42;;;26.85;;
59074;SDS011;44860;53.020;6.738;2023-05-07T06:48:36;29.55;;;26.30;;
59074;SDS011;44860;53.020;6.738;2023-05-07T06:51:02;35.95;;;29.00;;
59074;SDS011;44860;53.020;6.738;2023-05-07T06:53:28;31.58;;;28.25;;
59074;SDS011;44860;53.020;6.738;2023-05-07T06:55:55;30.15;;;26.80;;
59074;SDS011;44860;53.020;6.738;2023-05-07T06:58:21;31.60;;;27.95;;
59074;SDS011;44860;53.020;6.738;2023-05-07T07:00:47;31.67;;;27.65;;
59074;SDS011;44860;53.020;6.738;2023-05-07T07:03:13;32.08;;;28.20;;
59074;SDS011;44860;53.020;6.738;2023-05-07T07:05:40;34.10;;;28.33;;
59074;SDS011;44860;53.020;6.738;2023-05-07T07:08:09;32.25;;;28.75;;
59074;SDS011;44860;53.020;6.738;2023-05-07T07:10:35;35.75;;;28.58;;
59074;SDS011;44860;53.020;6.738;2023-05-07T07:13:00;33.25;;;28.63;;
59074;SDS011;44860;53.020;6.738;2023-05-07T07:15:26;31.67;;;28.13;;
59074;SDS011;44860;53.020;6.738;2023-05-07T07:17:52;32.25;;;28.70;;
59074;SDS011;44860;53.020;6.738;2023-05-07T07:20:18;36.90;;;29.95;;
59074;SDS011;44860;53.020;6.738;2023-05-07T07:22:43;34.75;;;28.85;;
59074;SDS011;44860;53.020;6.738;2023-05-07T07:25:09;35.40;;;29.75;;
59074;SDS011;44860;53.020;6.738;2023-05-07T07:27:36;36.50;;;29.05;;
59074;SDS011;44860;53.020;6.738;2023-05-07T07:30:02;37.10;;;30.55;;
59074;SDS011;44860;53.020;6.738;2023-05-07T07:32:27;32.33;;;28.67;;
59074;SDS011;44860;53.020;6.738;2023-05-07T07:34:53;34.75;;;30.17;;
59074;SDS011;44860;53.020;6.738;2023-05-07T07:37:19;34.75;;;30.15;;
59074;SDS011;44860;53.020;6.738;2023-05-07T07:39:44;35.75;;;28.90;;
59074;SDS011;44860;53.020;6.738;2023-05-07T07:42:10;33.13;;;29.50;;
59074;SDS011;44860;53.020;6.738;2023-05-07T07:44:36;37.92;;;29.67;;
59074;SDS011;44860;53.020;6.738;2023-05-07T07:47:02;35.67;;;30.05;;
59074;SDS011;44860;53.020;6.738;2023-05-07T07:49:27;34.30;;;29.02;;
59074;SDS011;44860;53.020;6.738;2023-05-07T07:51:53;36.00;;;29.75;;
59074;SDS011;44860;53.020;6.738;2023-05-07T07:54:18;40.88;;;29.95;;
59074;SDS011;44860;53.020;6.738;2023-05-07T07:56:44;37.58;;;29.85;;
59074;SDS011;44860;53.020;6.738;2023-05-07T07:59:10;36.88;;;30.05;;
59074;SDS011;44860;53.020;6.738;2023-05-07T08:01:35;36.30;;;29.42;;
59074;SDS011;44860;53.020;6.738;2023-05-07T08:04:01;34.40;;;29.83;;
59074;SDS011;44860;53.020;6.738;2023-05-07T08:06:28;35.10;;;30.65;;
59074;SDS011;44860;53.020;6.738;2023-05-07T08:08:54;36.95;;;30.35;;
59074;SDS011;44860;53.020;6.738;2023-05-07T08:11:20;36.40;;;31.77;;
59074;SDS011;44860;53.020;6.738;2023-05-07T08:13:46;36.58;;;31.15;;
59074;SDS011;44860;53.020;6.738;2023-05-07T08:16:12;36.17;;;30.38;;
59074;SDS011;44860;53.020;6.738;2023-05-07T08:18:38;35.28;;;30.42;;
59074;SDS011;44860;53.020;6.738;2023-05-07T08:21:04;34.17;;;29.83;;
59074;SDS011;44860;53.020;6.738;2023-05-07T08:23:30;35.30;;;30.35;;
59074;SDS011;44860;53.020;6.738;2023-05-07T08:25:55;34.05;;;29.33;;
59074;SDS011;44860;53.020;6.738;2023-05-07T08:28:21;34.03;;;29.63;;
59074;SDS011;44860;53.020;6.738;2023-05-07T08:30:47;35.60;;;30.58;;
59074;SDS011;44860;53.020;6.738;2023-05-07T08:33:12;33.28;;;28.45;;
59074;SDS011;44860;53.020;6.738;2023-05-07T08:35:38;36.55;;;29.05;;
59074;SDS011;44860;53.020;6.738;2023-05-07T08:38:04;33.25;;;28.48;;
59074;SDS011;44860;53.020;6.738;2023-05-07T08:40:30;33.38;;;29.02;;
59074;SDS011;44860;53.020;6.738;2023-05-07T08:43:03;33.13;;;29.35;;
59074;SDS011;44860;53.020;6.738;2023-05-07T08:45:31;32.88;;;29.35;;
59074;SDS011;44860;53.020;6.738;2023-05-07T08:47:58;33.47;;;29.33;;
59074;SDS011;44860;53.020;6.738;2023-05-07T08:50:27;31.20;;;27.45;;
59074;SDS011;44860;53.020;6.738;2023-05-07T08:52:53;33.35;;;28.08;;
59074;SDS011;44860;53.020;6.738;2023-05-07T08:55:19;32.33;;;28.48;;
59074;SDS011;44860;53.020;6.738;2023-05-07T08:57:45;31.55;;;27.25;;
59074;SDS011;44860;53.020;6.738;2023-05-07T09:00:12;33.45;;;28.00;;
59074;SDS011;44860;53.020;6.738;2023-05-07T09:02:38;32.13;;;28.60;;
59074;SDS011;44860;53.020;6.738;2023-05-07T09:05:04;32.10;;;27.02;;
59074;SDS011;44860;53.020;6.738;2023-05-07T09:07:30;30.35;;;27.15;;
59074;SDS011;44860;53.020;6.738;2023-05-07T09:09:55;57.35;;;28.58;;
59074;SDS011;44860;53.020;6.738;2023-05-07T09:12:22;31.60;;;28.25;;
59074;SDS011;44860;53.020;6.738;2023-05-07T09:14:48;29.73;;;26.52;;
59074;SDS011;44860;53.020;6.738;2023-05-07T09:17:18;29.60;;;26.45;;
59074;SDS011;44860;53.020;6.738;2023-05-07T09:19:44;30.35;;;27.15;;
59074;SDS011;44860;53.020;6.738;2023-05-07T09:22:13;29.77;;;26.60;;
59074;SDS011;44860;53.020;6.738;2023-05-07T09:24:38;30.38;;;27.15;;
59074;SDS011;44860;53.020;6.738;2023-05-07T09:27:04;29.52;;;26.42;;
59074;SDS011;44860;53.020;6.738;2023-05-07T09:29:30;29.38;;;26.27;;
59074;SDS011;44860;53.020;6.738;2023-05-07T09:32:05;27.58;;;24.77;;
59074;SDS011;44860;53.020;6.738;2023-05-07T09:34:33;31.10;;;25.65;;
59074;SDS011;44860;53.020;6.738;2023-05-07T09:37:03;29.63;;;26.05;;
59074;SDS011;44860;53.020;6.738;2023-05-07T09:39:43;28.60;;;25.65;;
59074;SDS011;44860;53.020;6.738;2023-05-07T09:42:13;27.63;;;24.83;;
59074;SDS011;44860;53.020;6.738;2023-05-07T09:44:43;29.60;;;26.38;;
59074;SDS011;44860;53.020;6.738;2023-05-07T09:47:09;29.40;;;26.40;;
59074;SDS011;44860;53.020;6.738;2023-05-07T09:49:37;27.38;;;24.40;;
59074;SDS011;44860;53.020;6.738;2023-05-07T09:52:05;28.85;;;25.70;;
59074;SDS011;44860;53.020;6.738;2023-05-07T09:54:33;27.00;;;24.13;;
59074;SDS011;44860;53.020;6.738;2023-05-07T09:57:02;27.17;;;24.30;;
59074;SDS011;44860;53.020;6.738;2023-05-07T09:59:30;27.85;;;24.95;;
59074;SDS011;44860;53.020;6.738;2023-05-07T10:01:57;27.42;;;24.52;;
59074;SDS011;44860;53.020;6.738;2023-05-07T10:04:24;26.75;;;24.02;;
59074;SDS011;44860;53.020;6.738;2023-05-07T10:06:51;27.48;;;24.58;;
59074;SDS011;44860;53.020;6.738;2023-05-07T10:09:18;26.45;;;23.75;;
59074;SDS011;44860;53.020;6.738;2023-05-07T10:11:45;26.40;;;23.67;;
59074;SDS011;44860;53.020;6.738;2023-05-07T10:14:13;27.13;;;23.75;;
59074;SDS011;44860;53.020;6.738;2023-05-07T10:16:39;26.70;;;24.00;;
59074;SDS011;44860;53.020;6.738;2023-05-07T10:19:06;25.73;;;23.02;;
59074;SDS011;44860;53.020;6.738;2023-05-07T10:21:36;25.70;;;23.20;;
59074;SDS011;44860;53.020;6.738;2023-05-07T10:24:08;25.48;;;22.88;;
59074;SDS011;44860;53.020;6.738;2023-05-07T10:26:39;25.80;;;23.20;;
59074;SDS011;44860;53.020;6.738;2023-05-07T10:29:10;25.23;;;22.45;;
59074;SDS011;44860;53.020;6.738;2023-05-07T10:31:48;24.88;;;22.27;;
59074;SDS011;44860;53.020;6.738;2023-05-07T10:34:29;25.52;;;22.92;;
59074;SDS011;44860;53.020;6.738;2023-05-07T10:37:01;25.20;;;22.63;;
59074;SDS011;44860;53.020;6.738;2023-05-07T10:39:28;25.67;;;22.98;;
59074;SDS011;44860;53.020;6.738;2023-05-07T10:41:54;24.88;;;22.17;;
59074;SDS011;44860;53.020;6.738;2023-05-07T10:44:27;25.17;;;22.60;;
59074;SDS011;44860;53.020;6.738;2023-05-07T10:47:06;27.20;;;23.92;;
59074;SDS011;44860;53.020;6.738;2023-05-07T10:49:34;25.00;;;22.40;;
59074;SDS011;44860;53.020;6.738;2023-05-07T10:52:13;25.67;;;23.00;;
59074;SDS011;44860;53.020;6.738;2023-05-07T10:54:41;23.55;;;21.25;;
59074;SDS011;44860;53.020;6.738;2023-05-07T10:57:32;24.15;;;21.58;;
59074;SDS011;44860;53.020;6.738;2023-05-07T11:00:02;23.52;;;21.17;;
59074;SDS011;44860;53.020;6.738;2023-05-07T11:05:26;23.70;;;21.40;;
59074;SDS011;44860;53.020;6.738;2023-05-07T11:07:54;23.48;;;20.98;;
59074;SDS011;44860;53.020;6.738;2023-05-07T11:10:21;24.50;;;21.30;;
59074;SDS011;44860;53.020;6.738;2023-05-07T11:12:48;22.98;;;20.58;;
59074;SDS011;44860;53.020;6.738;2023-05-07T11:15:15;23.05;;;20.90;;
59074;SDS011;44860;53.020;6.738;2023-05-07T11:23:33;23.50;;;21.00;;
59074;SDS011;44860;53.020;6.738;2023-05-07T11:26:04;22.42;;;20.23;;
59074;SDS011;44860;53.020;6.738;2023-05-07T11:28:35;22.17;;;19.98;;
59074;SDS011;44860;53.020;6.738;2023-05-07T11:31:02;30.02;;;27.02;;
59074;SDS011;44860;53.020;6.738;2023-05-07T11:33:29;23.52;;;21.30;;
59074;SDS011;44860;53.020;6.738;2023-05-07T11:35:56;22.88;;;20.58;;
59074;SDS011;44860;53.020;6.738;2023-05-07T11:38:22;21.98;;;19.83;;
59074;SDS011;44860;53.020;6.738;2023-05-07T11:40:50;20.77;;;18.63;;
59074;SDS011;44860;53.020;6.738;2023-05-07T11:43:16;23.33;;;20.98;;
59074;SDS011;44860;53.020;6.738;2023-05-07T11:45:42;21.38;;;19.33;;
59074;SDS011;44860;53.020;6.738;2023-05-07T11:48:09;22.50;;;20.00;;
59074;SDS011;44860;53.020;6.738;2023-05-07T11:50:35;21.80;;;19.73;;
59074;SDS011;44860;53.020;6.738;2023-05-07T11:53:07;21.05;;;19.02;;
59074;SDS011;44860;53.020;6.738;2023-05-07T11:55:33;20.85;;;18.85;;
59074;SDS011;44860;53.020;6.738;2023-05-07T11:57:58;21.20;;;19.08;;
59074;SDS011;44860;53.020;6.738;2023-05-07T12:00:25;21.45;;;19.38;;
59074;SDS011;44860;53.020;6.738;2023-05-07T12:02:51;20.60;;;18.63;;
59074;SDS011;44860;53.020;6.738;2023-05-07T12:05:17;20.85;;;18.80;;
59074;SDS011;44860;53.020;6.738;2023-05-07T12:07:42;21.30;;;19.20;;
59074;SDS011;44860;53.020;6.738;2023-05-07T12:10:08;33.20;;;18.45;;
59074;SDS011;44860;53.020;6.738;2023-05-07T12:12:45;31.42;;;19.77;;
59074;SDS011;44860;53.020;6.738;2023-05-07T12:15:13;21.40;;;19.20;;
59074;SDS011;44860;53.020;6.738;2023-05-07T12:17:41;21.70;;;19.60;;
59074;SDS011;44860;53.020;6.738;2023-05-07T12:20:08;20.70;;;18.70;;
59074;SDS011;44860;53.020;6.738;2023-05-07T12:22:35;20.63;;;18.55;;
59074;SDS011;44860;53.020;6.738;2023-05-07T12:25:01;20.20;;;18.30;;
59074;SDS011;44860;53.020;6.738;2023-05-07T12:27:27;19.40;;;17.45;;
59074;SDS011;44860;53.020;6.738;2023-05-07T12:29:53;20.63;;;18.63;;
59074;SDS011;44860;53.020;6.738;2023-05-07T12:32:20;19.27;;;17.58;;
59074;SDS011;44860;53.020;6.738;2023-05-07T12:34:46;20.45;;;18.45;;
59074;SDS011;44860;53.020;6.738;2023-05-07T12:37:16;20.13;;;18.10;;
59074;SDS011;44860;53.020;6.738;2023-05-07T12:39:48;18.67;;;16.88;;
59074;SDS011;44860;53.020;6.738;2023-05-07T12:42:20;19.65;;;17.85;;
59074;SDS011;44860;53.020;6.738;2023-05-07T12:44:51;19.60;;;17.58;;
59074;SDS011;44860;53.020;6.738;2023-05-07T12:47:17;21.38;;;19.38;;
59074;SDS011;44860;53.020;6.738;2023-05-07T12:49:43;22.75;;;19.35;;
59074;SDS011;44860;53.020;6.738;2023-05-07T12:52:11;20.85;;;18.73;;
59074;SDS011;44860;53.020;6.738;2023-05-07T12:54:37;20.13;;;18.33;;
59074;SDS011;44860;53.020;6.738;2023-05-07T12:57:07;19.63;;;17.67;;
59074;SDS011;44860;53.020;6.738;2023-05-07T12:59:35;18.60;;;17.00;;
59074;SDS011;44860;53.020;6.738;2023-05-07T13:02:02;19.55;;;17.75;;
59074;SDS011;44860;53.020;6.738;2023-05-07T13:04:29;20.23;;;18.20;;
59074;SDS011;44860;53.020;6.738;2023-05-07T13:06:54;19.55;;;17.65;;
59074;SDS011;44860;53.020;6.738;2023-05-07T13:09:20;19.50;;;17.58;;
59074;SDS011;44860;53.020;6.738;2023-05-07T13:11:46;18.95;;;17.25;;
59074;SDS011;44860;53.020;6.738;2023-05-07T13:14:11;17.80;;;16.20;;
59074;SDS011;44860;53.020;6.738;2023-05-07T13:16:37;18.45;;;16.75;;
59074;SDS011;44860;53.020;6.738;2023-05-07T13:19:03;18.63;;;17.02;;
59074;SDS011;44860;53.020;6.738;2023-05-07T13:21:29;18.83;;;17.13;;
59074;SDS011;44860;53.020;6.738;2023-05-07T13:23:56;17.95;;;16.05;;
59074;SDS011;44860;53.020;6.738;2023-05-07T13:26:23;18.45;;;16.67;;
59074;SDS011;44860;53.020;6.738;2023-05-07T13:28:49;17.02;;;15.52;;
59074;SDS011;44860;53.020;6.738;2023-05-07T13:31:16;18.92;;;17.02;;
59074;SDS011;44860;53.020;6.738;2023-05-07T13:33:42;17.77;;;16.17;;
59074;SDS011;44860;53.020;6.738;2023-05-07T13:36:08;17.83;;;16.17;;
59074;SDS011;44860;53.020;6.738;2023-05-07T13:38:34;18.55;;;16.95;;
59074;SDS011;44860;53.020;6.738;2023-05-07T13:41:00;24.10;;;20.95;;
59074;SDS011;44860;53.020;6.738;2023-05-07T13:43:26;17.17;;;15.68;;
59074;SDS011;44860;53.020;6.738;2023-05-07T13:45:51;18.05;;;16.45;;
59074;SDS011;44860;53.020;6.738;2023-05-07T13:48:17;17.65;;;15.85;;
59074;SDS011;44860;53.020;6.738;2023-05-07T13:50:43;18.45;;;16.60;;
59074;SDS011;44860;53.020;6.738;2023-05-07T13:53:08;16.80;;;15.27;;
59074;SDS011;44860;53.020;6.738;2023-05-07T13:55:34;18.65;;;16.75;;
59074;SDS011;44860;53.020;6.738;2023-05-07T13:58:00;16.50;;;14.90;;
59074;SDS011;44860;53.020;6.738;2023-05-07T14:00:27;34.20;;;26.83;;
59074;SDS011;44860;53.020;6.738;2023-05-07T14:02:54;15.63;;;14.13;;
59074;SDS011;44860;53.020;6.738;2023-05-07T14:05:21;15.80;;;14.20;;
59074;SDS011;44860;53.020;6.738;2023-05-07T14:07:48;14.38;;;12.98;;
59074;SDS011;44860;53.020;6.738;2023-05-07T14:10:16;15.13;;;13.82;;
59074;SDS011;44860;53.020;6.738;2023-05-07T14:12:43;15.82;;;14.38;;
59074;SDS011;44860;53.020;6.738;2023-05-07T14:15:09;16.67;;;15.18;;
59074;SDS011;44860;53.020;6.738;2023-05-07T14:17:36;15.98;;;14.60;;
59074;SDS011;44860;53.020;6.738;2023-05-07T14:20:02;15.75;;;14.35;;
59074;SDS011;44860;53.020;6.738;2023-05-07T14:22:28;15.82;;;14.43;;
59074;SDS011;44860;53.020;6.738;2023-05-07T14:24:53;14.68;;;13.38;;
59074;SDS011;44860;53.020;6.738;2023-05-07T14:27:19;16.23;;;14.73;;